Simon Davis

Olheiro - Arsenal
5 Dez 2027
Domingo
Processo

Personalidade

Adaptabilidade (16) Ambição (15) Controvérsia (4) Lealdade (9) Pressão (7) Profissionalismo (12) Espírito Esportivo (18) Temperamento (10)

Perfil

Estilo de Treinamento Democrático
Licença Continental Pro
Determinação 9
Gestão de Pessoas 11
Motivação 10
Disciplina 8
Satisfação no Trabalho
88%
Fadiga
0%
Função Olheiro
Salário 82.9K p/s
Contrato 14.03.2030

Desempenho

Comportamento Bom
Eficácia do Treinamento
50%
Desenvolvimento do Jogador
60%
Prevenção de Lesões
45%
Implementação Tática
70%

Eventos Recentes

Participou de uma reunião de recrutamento agora
Participou de uma reunião de recrutamento 7d atrás
Participou de uma reunião de recrutamento 7d atrás
Recomendou um alvo de transferência 7d atrás
Participou de uma reunião de recrutamento 14d atrás
Participou de uma reunião de recrutamento 14d atrás
Recomendou um alvo de transferência 14d atrás
Recomendou um alvo de transferência 21d atrás

Monitorando agora

74
Jogador Clube Status Habilidade Confiança Observado Última observação Último voto
Roberto Lezcano Blackpool Ativo 107 / 107 42% 1 / 1m 27.10.2027 -
Liam Eissat Bromley Ativo 73 / 78 30% 1 / 1m 15.09.2027 -
Emilio Lawrence Harrogate Town Ativo 132 / 135 52% 1 / 1m 15.09.2027 -
Jake Evans Harrogate Town Ativo 113 / 118 30% 1 / 1m 15.09.2027 -
Mohamed Belloumi Hull City Ativo 133 / 134 90% 1 02.06.2027 Aprovar
Ibrahim Maza Bayern Munich Ativo 147 / 160 40% 12 31.05.2027 -
Noahkai Banks VfL Wolfsburg Ativo 129 / 131 40% 2 31.05.2027 -
Christ Inao Oulaï Fiorentina Ativo 133 / 142 40% 6 31.05.2027 -
Harrison Armstrong Hull City Ativo 126 / 137 40% 1 30.05.2027 -
Trey Nyoni Exeter City Ativo 130 / 128 40% 1 30.05.2027 -
Jaydee Canvot Crystal Palace Ativo 134 / 131 40% 7 28.05.2027 -
Josh King Charlton Athletic Ativo 137 / 136 40% 5 27.05.2027 -
Leny Yoro Manchester United Ativo 147 / 142 40% 5 27.05.2027 -
Caleb Yirenkyi Coventry City Ativo 132 / 137 40% 14 25.05.2027 -
Christos Mouzakitis Hull City Ativo 130 / 127 40% 6 25.05.2027 -
Ollie Scarles West Ham United Ativo 130 / 136 40% 8 23.05.2027 -
Lennon Miller AC Milan Ativo 132 / 133 40% 8 22.05.2027 -
Veljko Milosavljević Newcastle United Negociando 134 / 132 40% 6 20.05.2027 -
Thomas Jørgensen Toulouse FC Ativo 128 / 138 40% 3 17.05.2027 -
Eliás Montiel Atlético Madrid Ativo 132 / 135 40% 10 16.05.2027 -
Kirill Glebov CSKA Moscow Ativo 126 / 127 40% 4 16.05.2027 -
Mateus Mané Liverpool Ativo 134 / 134 40% 4 13.05.2027 -
Tyler Dibling Manchester City Ativo 138 / 136 40% 2 07.05.2027 -
Leo Castledine Leeds United Ativo 127 / 144 40% 4 30.04.2027 -
Chemsdine Talbi Sunderland Ativo 141 / 141 40% 3 30.04.2027 Observar
Roger Fernandes Al-Ittihad Ativo 136 / 138 40% 5 17.04.2027 -
Christian Kofane Bayer Leverkusen Ativo 135 / 142 40% 1 15.04.2027 -
Edvin Austbø West Ham United Ativo 127 / 138 40% 4 13.04.2027 -
Lennart Karl VfL Wolfsburg Ativo 137 / 145 40% 2 11.04.2027 -
Jack Hinshelwood Brighton Ativo 145 / 149 40% 4 05.04.2027 -
Sindre Walle Egeli Ipswich Town Ativo 129 / 133 40% 4 04.04.2027 -
Kobbie Mainoo Manchester United Ativo 149 / 147 40% 1 03.04.2027 -
Eivind Helland Torino Ativo 131 / 127 40% 2 02.04.2027 -
Chema Andrés Manchester United Ativo 138 / 153 40% 3 31.03.2027 -
Pedro Zenit Ativo 135 / 119 40% 2 29.03.2027 -
Matheus Gonçalves Al-Ahli Ativo 127 / 112 40% 1 24.03.2027 -
Antoni Milambo Brentford Ativo 141 / 137 40% 1 11.03.2027 -
Malick Fofana Sunderland Ativo 145 / 149 40% 2 06.03.2027 -
Nicolas Jackson Aston Villa Ativo 145 / 144 40% 6 30.12.2026 -
Bryan Mbeumo Manchester United Ativo 155 / 153 40% 1 30.12.2026 -
Alexander Isak Liverpool Ativo 178 / 170 40% 4 28.12.2026 -
Patrick Addo Great Olympics Ativo 106 / 104 40% 2 28.12.2026 -
Etiosa Ighodaro Kaizer Chiefs Ativo 113 / 114 40% 2 27.12.2026 -
Antoine Semenyo Manchester City Ativo 159 / 161 40% 2 27.12.2026 -
Brayan León Mamelodi Sundowns Ativo 116 / 102 40% 4 26.12.2026 -
Jérémy Doku Manchester City Ativo 166 / 173 40% 3 24.12.2026 -
Matheus Cunha Manchester United Ativo 161 / 147 40% 2 22.12.2026 -
Sunusi Ibrahim Cotonsport Garoua Ativo 112 / 110 40% 1 22.12.2026 -
Hugo Ekitiké Liverpool Ativo 164 / 168 40% 2 19.12.2026 -
Rayan Cherki Manchester City Ativo 166 / 164 40% 3 11.12.2026 -
Iliman N'Diaye Derby County Ativo 162 / 158 40% 3 09.12.2026 -
Bradley Barcola Liverpool Ativo 163 / 159 40% 3 17.11.2026 -
Ilyas Ansah Hull City Ativo 129 / 141 40% 1 14.11.2026 -
Caoimhin Kelleher Brentford Ativo 147 / 153 40% 1 02.11.2026 -
Calvin Harris Sporting Kansas City Ativo 104 / 109 40% 4 28.10.2026 -
Evidence Makgopa Orlando Pirates Ativo 116 / 116 40% 2 28.10.2026 -
Tudor Mendel-Idowu Doncaster Rovers Ativo 96 / 101 30% 1 / 1m 28.10.2026 -
Rio Ngumoha Rotherham United Ativo 134 / 143 30% 1 / 1m 28.10.2026 -
Theo Corbeanu Toronto FC Ativo 124 / 114 40% 2 22.10.2026 -
Erling Haaland Manchester City Ativo 185 / 171 40% 2 22.10.2026 -
Leonardo Campana New England Revolution Ativo 123 / 137 40% 3 21.10.2026 -
Talles Magno New York City Ativo 127 / 119 40% 1 21.10.2026 -
Kelvin Yeboah Minnesota United FC Ativo 127 / 114 40% 3 08.10.2026 -
Brennan Johnson Everton Ativo 142 / 143 40% 1 08.10.2026 -
Martín Ojeda Orlando City Ativo 132 / 133 40% 2 03.10.2026 -
Wessam Abou Ali Columbus Crew Ativo 133 / 135 40% 2 02.10.2026 -
Kévin Denkey FC Cincinnati Ativo 129 / 112 40% 1 28.09.2026 -
Germán Berterame Inter Miami CF Ativo 137 / 131 40% 3 26.09.2026 -
Brandon Vázquez Austin FC Ativo 121 / 130 40% 2 24.09.2026 -
Josh Sargent Toronto FC Ativo 127 / 135 40% 1 24.09.2026 -
Rafael Navarro St. Louis CITY SC Ativo 125 / 139 40% 2 19.09.2026 -
Dejan Joveljić Seattle Sounders Ativo 124 / 121 40% 1 12.09.2026 -
Tomás Chancalay Minnesota United FC Ativo 129 / 130 40% 1 07.09.2026 -
Noah Sadiki Sunderland Ativo 138 / 134 40% 1 01.08.2026 -